Time;durP1;ratioP1;P1;durP2;ratioP2;P2;SDS_P1;SDS_P2;PMS_P1;PMS_P2;Temp;Humidity;BMP_temperature;BMP_pressure;BME280_temperature;BME280_humidity;BME280_pressure;Samples;Min_cycle;Max_cycle;Signal;HPM_P1;HPM_P2
2021/09/03 00:00:41;;;;;;;12.40;6.37;;;14.20;99.90;13.70;97586.00;;;;4971518;28;20231;-81
2021/09/03 00:03:29;;;;;;;6.60;4.90;;;14.10;99.90;13.60;97585.00;;;;4971965;28;20215;-82
2021/09/03 00:06:22;;;;;;;7.73;5.40;;;14.00;99.90;13.70;97582.00;;;;4971955;28;20212;-80
2021/09/03 00:09:11;;;;;;;6.80;5.47;;;13.90;99.90;13.70;97578.00;;;;4972747;28;20207;-81
2021/09/03 00:12:00;;;;;;;6.57;4.87;;;13.90;99.90;13.70;97578.00;;;;4960286;28;20234;-82
2021/09/03 00:14:48;;;;;;;6.37;4.90;;;13.90;99.90;13.60;97579.00;;;;4971948;28;20207;-83
2021/09/03 00:17:39;;;;;;;9.73;6.03;;;13.90;99.90;13.50;97580.00;;;;4970716;28;20218;-81
2021/09/03 00:20:28;;;;;;;6.03;4.87;;;13.80;99.90;13.50;97577.00;;;;4961083;28;20227;-80
2021/09/03 00:23:17;;;;;;;6.13;5.53;;;13.80;99.90;13.50;97582.00;;;;4971811;28;20215;-81
2021/09/03 00:26:06;;;;;;;7.97;6.03;;;13.70;99.90;13.50;97574.00;;;;4971910;28;20207;-83
2021/09/03 00:28:55;;;;;;;7.63;5.30;;;13.70;99.90;13.40;97565.00;;;;4970659;28;20222;-81
2021/09/03 00:31:44;;;;;;;5.10;4.60;;;13.70;99.90;13.50;97566.00;;;;4971350;28;20239;-81
2021/09/03 00:34:35;;;;;;;7.07;5.30;;;13.70;99.90;13.40;97557.00;;;;4971508;28;20211;-81
2021/09/03 00:37:24;;;;;;;9.33;5.33;;;13.60;99.90;13.40;97557.00;;;;4971046;28;20203;-81
2021/09/03 00:40:13;;;;;;;7.13;5.20;;;13.60;99.90;13.40;97562.00;;;;4971028;28;20238;-82
2021/09/03 00:43:02;;;;;;;6.97;5.63;;;13.60;99.90;13.30;97562.00;;;;4971577;28;20218;-80
2021/09/03 00:45:51;;;;;;;8.30;4.90;;;13.60;99.90;13.10;97559.00;;;;4970868;28;20214;-80
2021/09/03 00:48:39;;;;;;;9.00;5.53;;;13.50;99.90;13.20;97556.00;;;;4970693;28;20230;-82
2021/09/03 00:51:30;;;;;;;9.33;5.30;;;13.50;99.90;13.30;97551.00;;;;4969810;28;20238;-80
2021/09/03 00:54:18;;;;;;;6.63;5.07;;;13.40;99.90;13.20;97548.00;;;;4971634;28;20214;-82
2021/09/03 00:57:09;;;;;;;5.60;5.00;;;13.40;99.90;13.10;97551.00;;;;4970850;28;20211;-81
2021/09/03 00:59:57;;;;;;;11.77;4.93;;;13.40;99.90;13.10;97554.00;;;;4972207;28;20203;-82
2021/09/03 01:02:46;;;;;;;8.00;4.90;;;13.40;99.90;13.10;97546.00;;;;4971545;28;20216;-80
2021/09/03 01:05:36;;;;;;;6.70;5.37;;;13.30;99.90;12.90;97552.00;;;;4971339;28;20214;-81
2021/09/03 01:08:26;;;;;;;7.00;4.80;;;13.20;99.90;13.00;97547.00;;;;4968989;28;20214;-80
2021/09/03 01:11:15;;;;;;;6.23;4.43;;;13.20;99.90;12.90;97549.00;;;;4971072;28;20223;-80
2021/09/03 01:14:04;;;;;;;6.13;4.97;;;13.20;99.90;12.90;97536.00;;;;4971693;28;20211;-80
2021/09/03 01:16:53;;;;;;;7.87;4.73;;;13.10;99.90;13.00;97543.00;;;;4971358;28;20204;-80
2021/09/03 01:19:42;;;;;;;8.20;5.50;;;13.10;99.90;13.10;97537.00;;;;4970112;28;20215;-80
2021/09/03 01:22:32;;;;;;;5.97;4.83;;;13.20;99.90;12.90;97532.00;;;;4970441;28;20219;-80
2021/09/03 01:25:21;;;;;;;7.73;5.40;;;13.20;99.90;12.90;97533.00;;;;4970194;28;20214;-82
2021/09/03 01:28:10;;;;;;;8.30;5.07;;;13.10;99.90;12.90;97533.00;;;;4970514;28;20230;-80
2021/09/03 01:30:59;;;;;;;7.43;6.17;;;13.10;99.90;12.80;97539.00;;;;4969672;28;20238;-80
2021/09/03 01:33:49;;;;;;;5.03;4.33;;;13.10;99.90;12.80;97535.00;;;;4971221;28;20237;-81
2021/09/03 01:36:38;;;;;;;5.17;4.53;;;13.00;99.90;12.70;97528.00;;;;4962100;28;20234;-82
2021/09/03 01:39:28;;;;;;;5.80;4.97;;;13.00;99.90;12.80;97522.00;;;;4964871;28;20208;-81
2021/09/03 01:42:17;;;;;;;5.40;4.73;;;13.00;99.90;12.70;97519.00;;;;4967116;28;20207;-80
2021/09/03 01:45:07;;;;;;;7.97;5.13;;;12.90;99.90;12.60;97523.00;;;;4971360;28;20215;-80
2021/09/03 01:47:56;;;;;;;8.43;5.63;;;12.90;99.90;12.70;97519.00;;;;4970307;28;20218;-83
2021/09/03 01:50:45;;;;;;;6.33;4.63;;;12.90;99.90;12.60;97520.00;;;;4964676;28;20224;-83
2021/09/03 01:53:34;;;;;;;6.90;5.63;;;12.90;99.90;12.50;97514.00;;;;4952820;28;20728;-81
2021/09/03 01:56:24;;;;;;;6.30;5.43;;;12.80;99.90;12.50;97513.00;;;;4953234;28;20558;-82
2021/09/03 01:59:12;;;;;;;7.80;5.20;;;12.80;99.90;12.60;97510.00;;;;4956168;28;20215;-82
2021/09/03 02:02:01;;;;;;;5.23;4.73;;;12.80;99.90;12.60;97516.00;;;;4955244;28;20652;-80
2021/09/03 02:04:50;;;;;;;7.77;5.97;;;12.70;99.90;12.30;97497.00;;;;4955836;28;20231;-80
2021/09/03 02:07:39;;;;;;;7.63;5.10;;;12.70;99.90;12.30;97502.00;;;;4954754;28;20212;-82
2021/09/03 02:10:28;;;;;;;5.73;4.80;;;12.70;99.90;12.40;97498.00;;;;4955441;28;20625;-81
2021/09/03 02:13:18;;;;;;;5.33;4.53;;;12.60;99.90;12.50;97493.00;;;;4955987;28;20223;-80
2021/09/03 02:16:07;;;;;;;7.47;4.70;;;12.70;99.90;12.40;97500.00;;;;4954949;28;20204;-80
2021/09/03 02:18:58;;;;;;;6.53;4.83;;;12.70;99.90;12.20;97497.00;;;;4953319;28;20237;-81
2021/09/03 02:21:47;;;;;;;6.13;4.47;;;12.60;99.90;12.20;97491.00;;;;4954599;28;20712;-80
2021/09/03 02:24:36;;;;;;;7.03;5.20;;;12.60;99.90;12.30;97495.00;;;;4954718;29;20222;-82
2021/09/03 02:27:25;;;;;;;9.53;4.00;;;12.50;99.90;12.20;97494.00;;;;4954444;28;20212;-80
2021/09/03 02:30:15;;;;;;;7.50;5.67;;;12.50;99.90;12.10;97497.00;;;;4955583;28;20231;-80
2021/09/03 02:33:05;;;;;;;6.83;4.03;;;12.40;99.90;12.00;97493.00;;;;4954956;28;20239;-80
2021/09/03 02:35:53;;;;;;;6.17;4.73;;;12.40;99.90;11.80;97480.00;;;;4955493;29;20216;-80
2021/09/03 02:38:43;;;;;;;7.10;4.33;;;12.30;99.90;11.90;97494.00;;;;4955346;28;20689;-80
2021/09/03 02:41:32;;;;;;;5.70;4.00;;;12.20;99.90;11.90;97486.00;;;;4954239;29;20224;-80
2021/09/03 02:44:20;;;;;;;7.63;5.53;;;12.20;99.90;12.00;97482.00;;;;4968022;28;20685;-82
2021/09/03 02:47:11;;;;;;;6.93;5.63;;;12.20;99.90;12.00;97477.00;;;;4974042;28;20218;-81
2021/09/03 02:49:59;;;;;;;5.20;4.33;;;12.20;99.90;12.00;97483.00;;;;4985208;28;20242;-81
2021/09/03 02:52:50;;;;;;;10.60;5.67;;;12.20;99.90;11.90;97467.00;;;;4962607;28;20258;-81
2021/09/03 02:55:39;;;;;;;5.63;4.80;;;12.20;99.90;11.90;97473.00;;;;4973439;28;20207;-81
2021/09/03 02:58:27;;;;;;;8.37;5.47;;;12.20;99.90;11.90;97471.00;;;;4972888;28;20219;-81
2021/09/03 03:01:16;;;;;;;5.73;4.90;;;12.20;99.90;11.80;97468.00;;;;4972360;28;20238;-80
2021/09/03 03:04:06;;;;;;;6.20;4.70;;;12.10;99.90;11.60;97470.00;;;;4973466;28;20216;-81
2021/09/03 03:06:55;;;;;;;5.53;4.47;;;12.10;99.90;11.50;97470.00;;;;4971232;28;20215;-81
2021/09/03 03:09:44;;;;;;;4.33;4.03;;;12.00;99.90;11.50;97472.00;;;;4971868;28;20568;-80
2021/09/03 03:12:33;;;;;;;8.10;4.33;;;11.90;99.90;11.50;97465.00;;;;4973448;28;20230;-81
2021/09/03 03:15:23;;;;;;;6.33;4.97;;;11.80;99.90;11.50;97471.00;;;;4972289;28;20203;-80
2021/09/03 03:18:12;;;;;;;5.90;5.03;;;11.80;99.90;11.40;97457.00;;;;4972048;28;20225;-80
2021/09/03 03:21:02;;;;;;;6.93;4.43;;;11.80;99.90;11.20;97467.00;;;;4971635;28;20602;-80
2021/09/03 03:23:51;;;;;;;6.30;5.70;;;11.70;99.90;11.20;97463.00;;;;4971534;28;20215;-80
2021/09/03 03:26:40;;;;;;;6.60;5.03;;;11.60;99.90;11.00;97465.00;;;;4960258;28;20214;-80
2021/09/03 03:29:29;;;;;;;6.50;5.37;;;11.50;99.90;11.10;97459.00;;;;4972111;28;20203;-79
2021/09/03 03:32:17;;;;;;;7.13;5.73;;;11.50;99.90;11.00;97453.00;;;;4970921;28;20203;-80
2021/09/03 03:35:09;;;;;;;8.13;5.13;;;11.50;99.90;11.00;97445.00;;;;4971418;28;20214;-80
2021/09/03 03:38:00;;;;;;;8.57;6.00;;;11.40;99.90;10.90;97445.00;;;;4971966;28;20578;-80
2021/09/03 03:40:48;;;;;;;6.63;5.53;;;11.30;99.90;10.70;97452.00;;;;4970685;28;20879;-80
2021/09/03 03:43:37;;;;;;;8.87;4.97;;;11.30;99.90;10.70;97448.00;;;;4970691;28;20739;-80
2021/09/03 03:46:27;;;;;;;9.40;5.40;;;11.20;99.90;10.40;97447.00;;;;4971350;28;20207;-80
2021/09/03 03:49:16;;;;;;;10.23;5.23;;;11.10;99.90;10.50;97447.00;;;;4976749;28;20213;-80
2021/09/03 03:52:07;;;;;;;6.70;5.23;;;11.10;99.90;10.50;97444.00;;;;4961652;28;20728;-81
2021/09/03 03:54:57;;;;;;;5.50;4.90;;;10.90;99.90;10.50;97436.00;;;;4971610;28;20203;-80
2021/09/03 03:57:46;;;;;;;4.87;4.37;;;10.90;99.90;10.30;97438.00;;;;4971429;28;20222;-81
2021/09/03 04:00:35;;;;;;;7.47;4.33;;;10.80;99.90;10.30;97436.00;;;;4971855;28;20240;-82
2021/09/03 04:03:24;;;;;;;9.17;5.20;;;10.80;99.90;10.30;97435.00;;;;4973700;28;20335;-83
2021/09/03 04:06:13;;;;;;;7.23;5.43;;;10.70;99.90;10.30;97433.00;;;;4972566;28;20587;-81
2021/09/03 04:09:01;;;;;;;5.60;4.70;;;10.70;99.90;10.40;97431.00;;;;4969736;28;20204;-82
2021/09/03 04:11:52;;;;;;;8.23;5.40;;;10.60;99.90;10.40;97428.00;;;;4974757;28;20231;-80
2021/09/03 04:14:41;;;;;;;6.50;5.33;;;10.70;99.90;10.40;97430.00;;;;4975248;28;20218;-83
2021/09/03 04:17:33;;;;;;;7.73;5.17;;;10.70;99.90;10.10;97420.00;;;;4967847;28;20571;-82
2021/09/03 04:20:21;;;;;;;9.00;5.30;;;10.60;99.90;10.10;97432.00;;;;4968834;28;20238;-83
2021/09/03 04:23:10;;;;;;;8.87;6.10;;;10.60;99.90;10.10;97417.00;;;;4974690;28;20231;-81
2021/09/03 04:25:59;;;;;;;7.23;5.43;;;10.50;99.90;10.10;97420.00;;;;4975805;28;20219;-81
2021/09/03 04:28:49;;;;;;;6.37;5.60;;;10.50;99.90;10.10;97417.00;;;;4973977;28;20215;-81
2021/09/03 04:31:38;;;;;;;5.07;4.50;;;10.50;99.90;10.00;97414.00;;;;4973179;28;20250;-81
2021/09/03 04:34:27;;;;;;;7.23;5.23;;;10.50;99.90;9.80;97428.00;;;;4974441;28;20206;-83
2021/09/03 04:37:16;;;;;;;8.07;5.13;;;10.40;99.90;9.80;97424.00;;;;4972651;28;20207;-81
2021/09/03 04:40:06;;;;;;;6.33;4.63;;;10.30;99.90;9.80;97428.00;;;;4974318;28;20227;-80
2021/09/03 04:42:55;;;;;;;8.63;5.53;;;10.30;99.90;9.70;97420.00;;;;4972784;28;20685;-81
2021/09/03 04:45:45;;;;;;;6.90;5.23;;;10.20;99.90;9.90;97423.00;;;;4973519;28;20234;-80
2021/09/03 04:48:34;;;;;;;7.13;4.87;;;10.20;99.90;10.00;97419.00;;;;4961354;28;20592;-81
2021/09/03 04:51:23;;;;;;;6.07;5.17;;;10.20;99.90;9.90;97423.00;;;;4971855;28;20234;-81
2021/09/03 04:54:12;;;;;;;8.83;5.67;;;10.20;99.90;9.80;97419.00;;;;4973113;28;20676;-82
2021/09/03 04:57:01;;;;;;;7.67;5.20;;;10.20;99.90;9.60;97414.00;;;;4974057;28;20723;-81
2021/09/03 04:59:51;;;;;;;8.00;5.97;;;10.20;99.90;9.70;97418.00;;;;4973183;28;20596;-81
2021/09/03 05:02:41;;;;;;;6.77;5.30;;;10.20;99.90;10.00;97419.00;;;;4972373;28;20211;-81
2021/09/03 05:05:30;;;;;;;9.93;5.63;;;10.20;99.90;10.00;97414.00;;;;4971740;28;20560;-82
2021/09/03 05:08:19;;;;;;;5.87;5.10;;;10.30;99.90;10.20;97417.00;;;;4972318;28;20203;-82
2021/09/03 05:11:07;;;;;;;7.17;5.80;;;10.30;99.90;10.20;97411.00;;;;4972916;28;20231;-81
2021/09/03 05:13:56;;;;;;;8.33;5.43;;;10.50;99.90;10.40;97409.00;;;;4973469;28;20222;-81
2021/09/03 05:16:45;;;;;;;8.47;6.03;;;10.60;99.90;10.50;97406.00;;;;4973299;28;20215;-83
2021/09/03 05:19:35;;;;;;;6.53;5.23;;;10.70;99.90;10.60;97395.00;;;;4972510;28;20204;-80
2021/09/03 05:22:24;;;;;;;9.17;5.37;;;10.80;99.90;10.80;97404.00;;;;4973839;28;20218;-81
2021/09/03 05:25:14;;;;;;;8.10;5.70;;;10.90;99.90;11.10;97402.00;;;;4972616;28;20321;-83
2021/09/03 05:28:03;;;;;;;6.80;5.53;;;11.00;99.90;11.10;97403.00;;;;4973723;28;20207;-83
2021/09/03 05:30:51;;;;;;;8.67;5.40;;;11.10;99.90;11.20;97404.00;;;;4972322;28;20238;-78
2021/09/03 05:33:40;;;;;;;7.03;5.87;;;11.30;99.90;11.20;97405.00;;;;4973517;28;20627;-81
2021/09/03 05:36:30;;;;;;;6.53;5.53;;;11.30;99.90;11.40;97396.00;;;;4974050;28;20200;-80
2021/09/03 05:39:19;;;;;;;8.03;6.00;;;11.40;99.90;11.50;97400.00;;;;4973196;28;20211;-80
2021/09/03 05:42:10;;;;;;;9.10;6.30;;;11.50;99.90;11.60;97407.00;;;;4974126;28;20219;-81
2021/09/03 05:44:59;;;;;;;11.37;5.40;;;11.60;99.90;11.70;97391.00;;;;4972850;28;20223;-82
2021/09/03 05:47:48;;;;;;;8.27;5.70;;;11.70;99.90;11.80;97396.00;;;;4971665;28;20680;-80
2021/09/03 05:50:37;;;;;;;9.57;6.13;;;11.80;99.90;11.90;97391.00;;;;4977251;28;20613;-82
2021/09/03 05:53:27;;;;;;;8.10;6.60;;;11.90;99.90;12.00;97395.00;;;;4973747;28;20203;-82
2021/09/03 05:56:16;;;;;;;7.43;5.43;;;12.00;99.90;12.10;97393.00;;;;4972070;28;20211;-82
2021/09/03 05:59:06;;;;;;;8.60;4.93;;;12.10;99.90;12.00;97390.00;;;;4973498;28;20218;-81
2021/09/03 06:01:55;;;;;;;7.43;6.37;;;12.20;99.90;12.10;97392.00;;;;4961517;28;20225;-81
2021/09/03 06:04:43;;;;;;;8.43;5.47;;;12.20;99.90;12.20;97398.00;;;;4972453;28;20721;-81
2021/09/03 06:07:33;;;;;;;12.53;6.83;;;12.30;99.90;12.20;97395.00;;;;4971394;28;20208;-82
2021/09/03 06:10:24;;;;;;;9.43;6.10;;;12.30;99.90;12.30;97397.00;;;;4970519;28;20708;-82
2021/09/03 06:13:12;;;;;;;13.53;7.23;;;12.40;99.90;12.50;97385.00;;;;4971906;28;20226;-82
2021/09/03 06:16:01;;;;;;;10.37;6.07;;;12.50;99.90;12.80;97401.00;;;;4971104;28;20214;-80
2021/09/03 06:18:50;;;;;;;8.93;5.87;;;12.60;99.90;13.00;97388.00;;;;4971633;28;20199;-81
2021/09/03 06:21:39;;;;;;;11.90;5.57;;;12.70;99.90;13.20;97391.00;;;;4970497;28;20223;-80
2021/09/03 06:24:28;;;;;;;7.73;5.90;;;12.90;99.90;13.30;97392.00;;;;4972565;28;20716;-81
2021/09/03 06:27:19;;;;;;;9.03;6.10;;;13.10;99.90;13.50;97392.00;;;;4970420;28;20204;-82
2021/09/03 06:30:09;;;;;;;8.70;5.80;;;13.20;99.90;13.40;97397.00;;;;4971668;28;20223;-81
2021/09/03 06:32:58;;;;;;;8.17;6.40;;;13.30;99.90;13.50;97401.00;;;;4972608;28;20688;-81
2021/09/03 06:35:47;;;;;;;7.33;6.13;;;13.40;99.90;13.60;97396.00;;;;4973223;28;20207;-82
2021/09/03 06:38:36;;;;;;;12.70;6.83;;;13.50;99.90;13.60;97394.00;;;;4970697;28;20222;-81
2021/09/03 06:41:24;;;;;;;8.80;5.67;;;13.60;99.90;13.80;97385.00;;;;4970414;28;20227;-81
2021/09/03 06:44:14;;;;;;;6.40;5.73;;;13.70;99.90;13.90;97375.00;;;;4974739;28;20223;-82
2021/09/03 06:47:04;;;;;;;10.17;6.70;;;13.80;99.90;14.10;97380.00;;;;4975867;28;20208;-83
2021/09/03 06:49:53;;;;;;;14.43;6.50;;;13.90;99.90;14.40;97384.00;;;;4979637;28;20226;-82
2021/09/03 06:52:42;;;;;;;12.93;6.50;;;14.00;99.90;14.50;97387.00;;;;4977272;28;20721;-82
2021/09/03 06:55:32;;;;;;;9.37;5.53;;;14.20;99.90;14.60;97391.00;;;;4977447;28;20212;-81
2021/09/03 06:58:20;;;;;;;8.83;6.40;;;14.30;99.90;14.70;97385.00;;;;4976663;28;20222;-83
2021/09/03 07:01:10;;;;;;;10.47;6.63;;;14.40;99.90;14.50;97384.00;;;;4977142;28;20223;-83
2021/09/03 07:03:59;;;;;;;11.43;6.10;;;14.50;99.90;14.50;97389.00;;;;4976628;28;20222;-81
2021/09/03 07:06:49;;;;;;;9.90;6.17;;;14.60;99.90;14.50;97396.00;;;;4975498;28;20214;-81
2021/09/03 07:09:38;;;;;;;9.60;6.10;;;14.60;99.90;14.60;97399.00;;;;4974303;28;20233;-81
2021/09/03 07:12:27;;;;;;;7.87;5.87;;;14.60;99.90;14.70;97393.00;;;;4977355;28;20774;-82
2021/09/03 07:15:16;;;;;;;11.00;6.57;;;14.70;99.90;14.80;97392.00;;;;4971446;28;20222;-81
2021/09/03 07:18:06;;;;;;;11.00;5.80;;;14.80;99.90;14.80;97398.00;;;;4972911;28;20199;-82
2021/09/03 07:20:55;;;;;;;8.33;6.33;;;14.90;99.90;15.00;97396.00;;;;4973625;28;20223;-82
2021/09/03 07:23:44;;;;;;;9.10;6.40;;;14.90;99.90;15.30;97385.00;;;;4975851;28;20214;-83
2021/09/03 07:26:33;;;;;;;7.50;5.27;;;15.10;99.90;15.60;97384.00;;;;4974066;28;20227;-82
2021/09/03 07:29:22;;;;;;;9.13;5.63;;;15.20;99.90;15.90;97390.00;;;;4973444;28;20692;-82
2021/09/03 07:32:11;;;;;;;14.93;6.93;;;15.40;99.90;15.80;97386.00;;;;4974162;28;20242;-82
2021/09/03 07:35:01;;;;;;;9.37;6.30;;;15.60;99.90;16.10;97388.00;;;;4972982;28;20200;-83
2021/09/03 07:37:51;;;;;;;8.20;5.93;;;15.70;99.90;16.20;97394.00;;;;4973370;28;20218;-83
2021/09/03 07:40:40;;;;;;;9.57;6.53;;;15.80;99.90;16.40;97395.00;;;;4973569;28;20242;-81
2021/09/03 07:43:29;;;;;;;13.60;7.20;;;16.00;99.90;16.40;97390.00;;;;4973491;28;20218;-81
2021/09/03 07:46:20;;;;;;;10.33;6.27;;;16.20;99.90;16.50;97387.00;;;;4972258;28;20231;-83
2021/09/03 07:49:10;;;;;;;10.83;6.37;;;16.30;99.90;16.70;97390.00;;;;4974155;28;20191;-82
2021/09/03 07:52:00;;;;;;;7.23;5.90;;;16.40;99.90;16.90;97376.00;;;;4975012;28;20227;-82
2021/09/03 07:54:49;;;;;;;9.87;5.57;;;16.60;99.90;17.40;97378.00;;;;4971848;28;20210;-83
2021/09/03 07:57:38;;;;;;;8.40;5.10;;;16.80;99.90;17.70;97379.00;;;;4972762;28;20230;-82
2021/09/03 08:00:27;;;;;;;6.03;5.10;;;17.00;99.90;17.80;97383.00;;;;4973833;28;20643;-81
2021/09/03 08:03:16;;;;;;;9.60;6.40;;;17.20;99.90;18.00;97379.00;;;;4971194;28;20215;-82
2021/09/03 08:06:05;;;;;;;10.37;5.83;;;17.40;99.90;18.10;97382.00;;;;4973469;28;20238;-82
2021/09/03 08:08:55;;;;;;;7.57;5.57;;;17.50;99.90;18.30;97369.00;;;;4973709;28;20222;-83
2021/09/03 08:11:43;;;;;;;8.37;5.50;;;17.70;99.90;18.60;97379.00;;;;4973075;28;20231;-81
2021/09/03 08:14:32;;;;;;;7.47;5.87;;;17.90;99.90;18.60;97370.00;;;;4973555;28;20278;-83
2021/09/03 08:17:21;;;;;;;7.30;5.80;;;18.00;99.90;19.00;97365.00;;;;4973389;28;20223;-82
2021/09/03 08:20:14;;;;;;;5.87;4.70;;;18.20;99.90;19.30;97375.00;;;;4973323;28;20227;-82
2021/09/03 08:23:04;;;;;;;6.47;4.97;;;18.40;99.90;19.30;97358.00;;;;4972704;28;20210;-82
2021/09/03 08:25:55;;;;;;;7.43;4.80;;;18.50;99.90;19.40;97369.00;;;;4973499;28;20720;-83
2021/09/03 08:28:44;;;;;;;8.03;5.07;;;18.70;99.90;19.40;97348.00;;;;4972021;28;20207;-82
2021/09/03 08:31:32;;;;;;;8.97;5.10;;;18.80;99.90;19.90;97349.00;;;;4972656;28;20227;-82
2021/09/03 08:34:21;;;;;;;15.63;4.27;;;19.00;99.90;20.30;97351.00;;;;4972070;28;20203;-82
2021/09/03 08:37:11;;;;;;;5.93;3.77;;;19.30;99.90;20.10;97361.00;;;;4972772;28;20230;-83
2021/09/03 08:40:00;;;;;;;6.57;4.57;;;19.50;99.90;20.30;97354.00;;;;4971815;28;20207;-81
2021/09/03 08:42:51;;;;;;;7.13;4.20;;;19.50;99.90;20.40;97354.00;;;;4973242;28;20214;-83
2021/09/03 08:45:42;;;;;;;5.33;4.10;;;19.80;99.90;20.50;97356.00;;;;4972600;28;20223;-81
2021/09/03 08:48:31;;;;;;;4.17;3.77;;;19.80;99.90;20.90;97358.00;;;;4960619;28;20215;-86
2021/09/03 08:51:20;;;;;;;7.90;4.90;;;20.00;99.90;20.70;97348.00;;;;4968208;28;20697;-81
2021/09/03 08:54:09;;;;;;;7.80;4.30;;;20.10;99.90;20.90;97372.00;;;;4973709;28;20203;-83
2021/09/03 08:56:58;;;;;;;7.47;4.70;;;20.20;99.90;20.40;97370.00;;;;4970791;28;20203;-81
2021/09/03 08:59:48;;;;;;;7.00;4.10;;;20.20;99.90;20.50;97362.00;;;;4970096;28;20211;-81
2021/09/03 09:02:37;;;;;;;5.83;4.30;;;20.20;99.90;21.00;97356.00;;;;4973040;28;20215;-82
2021/09/03 09:05:52;;;;;;;8.13;5.13;;;20.30;99.90;21.20;97350.00;;;;4972210;28;20226;-82
2021/09/03 09:08:41;;;;;;;5.10;4.00;;;20.40;99.90;21.50;97348.00;;;;4972840;28;20208;-82
2021/09/03 09:11:30;;;;;;;10.97;4.80;;;20.60;99.90;21.80;97353.00;;;;4973194;28;20239;-82
2021/09/03 09:14:19;;;;;;;5.47;4.37;;;20.90;99.90;22.10;97354.00;;;;4972518;28;20691;-81
2021/09/03 09:17:09;;;;;;;11.00;4.80;;;21.10;99.90;22.20;97364.00;;;;4971749;28;20235;-81
2021/09/03 09:19:58;;;;;;;13.50;6.20;;;21.30;99.90;22.10;97357.00;;;;4972423;28;20207;-82
2021/09/03 09:22:56;;;;;;;13.00;5.50;;;21.40;99.90;22.20;97355.00;;;;4971817;28;20212;-82
2021/09/03 09:25:45;;;;;;;11.80;5.20;;;21.50;99.90;22.00;97346.00;;;;4971725;28;20242;-82
2021/09/03 09:28:34;;;;;;;7.23;3.70;;;21.50;99.30;22.00;97347.00;;;;4969946;28;20579;-82
2021/09/03 09:31:32;;;;;;;8.67;4.60;;;21.50;98.40;22.70;97326.00;;;;4967958;28;20223;-81
2021/09/03 09:34:25;;;;;;;9.03;4.63;;;21.60;98.20;23.00;97332.00;;;;4970749;28;20207;-82
2021/09/03 09:37:17;;;;;;;9.07;4.60;;;21.90;99.40;22.70;97326.00;;;;4971922;28;20211;-83
2021/09/03 09:40:10;;;;;;;8.87;4.40;;;22.00;95.20;23.20;97320.00;;;;4971224;28;20242;-82
2021/09/03 09:42:59;;;;;;;4.93;3.57;;;22.20;97.20;23.60;97326.00;;;;4970513;28;20206;-82
2021/09/03 09:45:48;;;;;;;4.23;3.83;;;22.40;96.60;23.80;97326.00;;;;4976912;28;20231;-82
2021/09/03 09:49:05;;;;;;;6.70;4.07;;;22.70;96.00;23.70;97320.00;;;;4971287;28;20199;-83
2021/09/03 09:51:57;;;;;;;4.77;3.87;;;22.90;93.80;23.40;97314.00;;;;4967826;28;20235;-83
2021/09/03 09:54:46;;;;;;;6.00;4.30;;;23.10;92.20;22.00;97299.00;;;;4972139;28;20206;-82
2021/09/03 09:57:36;;;;;;;5.77;3.27;;;22.80;88.90;22.20;97313.00;;;;4971963;28;20207;-82
2021/09/03 10:00:26;;;;;;;8.23;4.27;;;22.70;87.00;22.50;97306.00;;;;4972874;28;20573;-83
2021/09/03 10:03:18;;;;;;;6.13;4.80;;;22.50;88.50;23.50;97305.00;;;;4972038;28;20215;-82
2021/09/03 10:06:06;;;;;;;9.97;5.33;;;22.60;89.20;24.00;97290.00;;;;4973188;28;20226;-82
2021/09/03 10:08:59;;;;;;;6.10;3.37;;;22.90;90.20;23.90;97286.00;;;;4970723;28;20222;-82
2021/09/03 10:11:50;;;;;;;6.30;3.30;;;23.20;88.30;24.10;97289.00;;;;4970496;28;20242;-82
2021/09/03 10:14:39;;;;;;;16.97;5.67;;;23.30;84.50;24.70;97291.00;;;;4969365;28;20206;-83
2021/09/03 10:17:30;;;;;;;5.57;3.73;;;23.60;83.90;24.30;97281.00;;;;4974624;28;20223;-83
2021/09/03 10:20:19;;;;;;;6.43;3.80;;;23.80;80.40;24.90;97298.00;;;;4974429;28;20234;-82
2021/09/03 10:23:08;;;;;;;9.47;4.50;;;23.90;81.20;24.00;97304.00;;;;4976551;28;20317;-83
2021/09/03 10:25:58;;;;;;;6.30;4.10;;;23.80;79.40;23.50;97265.00;;;;4975201;28;20223;-82
2021/09/03 10:28:47;;;;;;;4.70;4.07;;;23.70;78.70;24.30;97259.00;;;;4973672;28;20207;-82
2021/09/03 10:31:36;;;;;;;7.97;4.47;;;23.70;76.80;25.00;97264.00;;;;4974396;28;20235;-82
2021/09/03 10:35:04;;;;;;;5.03;4.33;;;24.00;76.90;26.00;97256.00;;;;4974049;28;20199;-83
2021/09/03 10:37:54;;;;;;;6.13;4.43;;;24.40;78.50;26.50;97255.00;;;;4974310;28;20663;-81
2021/09/03 10:40:43;;;;;;;4.73;4.30;;;24.90;75.70;25.70;97277.00;;;;4973179;28;20246;-82
2021/09/03 10:43:45;;;;;;;3.90;3.30;;;25.10;75.00;26.20;97254.00;;;;4974906;28;20631;-81
2021/09/03 10:46:43;;;;;;;6.90;4.20;;;25.20;73.80;25.50;97301.00;;;;4975991;28;20603;-82
2021/09/03 10:49:37;;;;;;;4.80;4.30;;;25.10;73.50;23.50;97296.00;;;;4971540;28;20205;-82
2021/09/03 10:52:26;;;;;;;5.47;3.70;;;24.90;68.00;22.90;97298.00;;;;4974656;28;20693;-82
2021/09/03 10:55:16;;;;;;;8.77;4.70;;;24.10;67.90;23.10;97292.00;;;;4974439;28;20218;-80
2021/09/03 10:58:05;;;;;;;5.70;4.20;;;23.60;70.30;23.00;97287.00;;;;4974588;28;20206;-83
2021/09/03 11:01:51;;;;;;;6.63;4.23;;;23.20;72.00;23.20;97288.00;;;;4973518;28;20227;-81
2021/09/03 11:04:46;;;;;;;6.83;3.67;;;23.00;74.00;23.10;97278.00;;;;4973877;28;20218;-80
2021/09/03 11:07:43;;;;;;;4.90;4.03;;;22.90;74.70;22.80;97283.00;;;;4973278;28;20235;-82
2021/09/03 11:10:31;;;;;;;5.80;4.10;;;22.80;73.80;22.80;97282.00;;;;4973464;28;20227;-81
2021/09/03 11:13:20;;;;;;;4.13;3.53;;;22.60;75.60;22.80;97277.00;;;;4974474;28;20218;-81
2021/09/03 11:16:35;;;;;;;5.53;4.10;;;22.60;77.00;22.90;97275.00;;;;4973621;28;20211;-82
2021/09/03 11:19:28;;;;;;;4.33;3.93;;;22.50;77.00;22.90;97277.00;;;;4973786;28;20600;-81
2021/09/03 11:22:18;;;;;;;5.63;3.50;;;22.50;77.80;22.90;97272.00;;;;4973168;28;20211;-81
2021/09/03 11:25:09;;;;;;;4.77;3.73;;;22.50;77.90;23.00;97279.00;;;;4974067;28;20207;-81
2021/09/03 11:27:57;;;;;;;5.77;3.63;;;22.50;78.00;22.90;97272.00;;;;4971634;28;20673;-82
2021/09/03 11:30:46;;;;;;;5.60;3.77;;;22.60;77.70;22.40;97268.00;;;;4971512;28;20247;-81
2021/09/03 11:33:36;;;;;;;4.60;3.90;;;22.50;77.30;22.40;97258.00;;;;4973619;28;20202;-82
2021/09/03 11:36:25;;;;;;;6.53;4.20;;;22.40;75.80;22.40;97193.00;;;;4973915;28;20649;-82
2021/09/03 11:39:16;;;;;;;5.40;4.00;;;22.30;76.90;24.60;97197.00;;;;4971936;28;20215;-81
2021/09/03 11:42:10;;;;;;;4.60;4.20;;;22.80;75.50;25.70;97189.00;;;;4969552;28;20250;-82
2021/09/03 11:45:02;;;;;;;5.17;3.77;;;23.60;72.70;26.60;97192.00;;;;4971495;28;20699;-81
2021/09/03 11:47:57;;;;;;;6.10;4.00;;;24.30;73.20;26.90;97194.00;;;;4975538;28;20254;-83
2021/09/03 11:51:24;;;;;;;5.50;3.70;;;25.20;71.90;28.00;97210.00;;;;4981550;28;20229;-83
2021/09/03 11:54:16;;;;;;;6.87;3.63;;;25.90;69.30;26.10;97240.00;;;;4973672;28;20214;-83
2021/09/03 11:57:07;;;;;;;6.90;4.53;;;26.00;66.10;26.20;97171.00;;;;4972423;28;20228;-82
2021/09/03 12:00:02;;;;;;;5.20;3.73;;;26.00;65.30;27.40;97170.00;;;;4980173;23;20212;-70
2021/09/03 12:02:52;;;;;;;6.17;3.60;;;26.40;65.40;27.40;97235.00;;;;4913137;29;20682;-69
2021/09/03 12:05:46;;;;;;;4.83;3.80;;;26.50;64.20;27.40;97231.00;;;;4920473;29;20207;-69
2021/09/03 12:08:37;;;;;;;4.82;4.00;;;26.50;64.70;27.70;97163.00;;;;4929652;29;20570;-70
2021/09/03 12:11:35;;;;;;;6.50;4.57;;;26.70;62.90;28.90;97165.00;;;;4924519;29;20230;-69
2021/09/03 12:14:24;;;;;;;4.57;3.90;;;27.10;63.00;29.30;97163.00;;;;4924792;29;20203;-69
2021/09/03 12:17:15;;;;;;;5.72;3.72;;;27.60;62.40;27.80;97158.00;;;;4929316;29;20227;-69
2021/09/03 12:20:17;;;;;;;12.52;3.92;;;27.90;59.30;26.90;97158.00;;;;4929698;29;20330;-69
2021/09/03 12:23:06;;;;;;;7.05;4.28;;;27.80;58.00;26.90;97165.00;;;;4929844;29;20214;-69
2021/09/03 12:26:15;;;;;;;6.85;4.70;;;27.70;58.60;28.60;97157.00;;;;4929004;29;20625;-70
2021/09/03 12:29:09;;;;;;;6.32;3.63;;;27.80;59.00;29.50;97162.00;;;;4930037;29;20230;-70
2021/09/03 12:32:00;;;;;;;6.50;4.25;;;27.90;59.60;30.40;97160.00;;;;4922276;29;20226;-70
2021/09/03 12:34:50;;;;;;;4.65;3.53;;;28.40;59.10;30.80;97155.00;;;;4925606;29;20210;-70
2021/09/03 12:37:39;;;;;;;6.53;4.78;;;29.00;58.20;30.90;97150.00;;;;4928579;29;20227;-71